Time;durP1;ratioP1;P1;durP2;ratioP2;P2;SDS_P1;SDS_P2;PMS_P1;PMS_P2;Temp;Humidity;BMP_temperature;BMP_pressure;BME280_temperature;BME280_humidity;BME280_pressure;Samples;Min_cycle;Max_cycle;Signal;HPM_P1;HPM_P2
2023/03/02 00:00:30;;;;;;;;;;;18.60;28.90;;;;;;8364939;28;19924;-44
2023/03/02 00:04:36;;;;;;;;;;;18.60;29.00;;;;;;8363885;28;19947;-44
2023/03/02 00:08:37;;;;;;;;;;;18.60;29.00;;;;;;8364021;28;20011;-44
2023/03/02 00:12:37;;;;;;;;;;;18.60;29.00;;;;;;8363994;28;19921;-44
2023/03/02 00:16:39;;;;;;;;;;;18.50;29.00;;;;;;8362802;28;19917;-45
2023/03/02 00:20:39;;;;;;;;;;;18.50;29.00;;;;;;8363676;28;20344;-45
2023/03/02 00:24:39;;;;;;;;;;;18.50;29.00;;;;;;8363898;28;19913;-44
2023/03/02 00:28:40;;;;;;;;;;;18.50;29.00;;;;;;8362982;28;19917;-45
2023/03/02 00:32:41;;;;;;;;;;;18.40;29.00;;;;;;8363275;28;19917;-44
2023/03/02 00:36:41;;;;;;;;;;;18.40;29.00;;;;;;8363417;28;20321;-45
2023/03/02 00:40:45;;;;;;;;;;;18.40;29.00;;;;;;8362548;28;19925;-45
2023/03/02 00:44:46;;;;;;;;;;;18.40;29.00;;;;;;8363291;28;19913;-45
2023/03/02 00:48:47;;;;;;;;;;;18.40;29.00;;;;;;8362708;28;20015;-44
2023/03/02 00:52:47;;;;;;;;;;;18.30;29.00;;;;;;8363231;28;20290;-45
2023/03/02 00:56:47;;;;;;;;;;;18.30;29.10;;;;;;8362867;28;19962;-45
2023/03/02 01:00:48;;;;;;;;;;;18.30;29.00;;;;;;8362886;28;19970;-44
2023/03/02 01:04:48;;;;;;;;;;;18.30;29.10;;;;;;8362969;28;19913;-45
2023/03/02 01:08:49;;;;;;;;;;;18.30;29.20;;;;;;8362803;28;20019;-45
2023/03/02 01:12:49;;;;;;;;;;;18.30;29.10;;;;;;8362049;28;20304;-44
2023/03/02 01:16:50;;;;;;;;;;;18.20;29.10;;;;;;8362599;28;19916;-44
2023/03/02 01:20:58;;;;;;;;;;;18.20;29.10;;;;;;8362512;28;20263;-44
2023/03/02 01:24:59;;;;;;;;;;;18.20;29.10;;;;;;8362326;28;19924;-44
2023/03/02 01:28:59;;;;;;;;;;;18.20;29.10;;;;;;8367607;28;20019;-44
2023/03/02 01:33:00;;;;;;;;;;;18.20;29.10;;;;;;8368979;28;19920;-44
2023/03/02 01:37:00;;;;;;;;;;;18.20;29.10;;;;;;8368484;28;20396;-44
2023/03/02 01:41:00;;;;;;;;;;;18.10;29.10;;;;;;8368816;28;19931;-44
2023/03/02 01:45:01;;;;;;;;;;;18.10;29.10;;;;;;8368841;28;20396;-44
2023/03/02 01:49:10;;;;;;;;;;;18.10;29.20;;;;;;8368142;28;19917;-45
2023/03/02 01:53:12;;;;;;;;;;;18.10;29.20;;;;;;8368686;28;20333;-44
2023/03/02 01:57:13;;;;;;;;;;;18.10;29.10;;;;;;8368335;28;20293;-45
2023/03/02 02:01:16;;;;;;;;;;;18.10;29.20;;;;;;8367984;28;19925;-44
2023/03/02 02:05:20;;;;;;;;;;;18.00;29.20;;;;;;8367174;28;19944;-44
2023/03/02 02:09:22;;;;;;;;;;;18.10;29.60;;;;;;8367947;28;19917;-44
2023/03/02 02:13:23;;;;;;;;;;;18.00;29.10;;;;;;8367415;28;19923;-44
2023/03/02 02:17:23;;;;;;;;;;;18.00;29.20;;;;;;8368118;28;20286;-45
2023/03/02 02:21:24;;;;;;;;;;;18.00;29.20;;;;;;8367612;28;19956;-44
2023/03/02 02:25:33;;;;;;;;;;;18.00;29.20;;;;;;8367620;28;19913;-44
2023/03/02 02:29:44;;;;;;;;;;;18.00;29.20;;;;;;8367514;28;19917;-44
2023/03/02 02:33:48;;;;;;;;;;;18.00;29.20;;;;;;8366688;28;20067;-42
2023/03/02 02:37:53;;;;;;;;;;;18.00;29.20;;;;;;8366552;28;19924;-44
2023/03/02 02:41:56;;;;;;;;;;;18.00;29.20;;;;;;8367005;28;19921;-45
2023/03/02 02:45:57;;;;;;;;;;;18.00;29.20;;;;;;8366697;28;19959;-44
2023/03/02 02:49:58;;;;;;;;;;;17.90;29.20;;;;;;8367052;28;20004;-44
2023/03/02 02:53:59;;;;;;;;;;;17.90;29.20;;;;;;8366502;28;19924;-44
2023/03/02 02:58:01;;;;;;;;;;;17.90;29.20;;;;;;8366135;28;19920;-45
2023/03/02 03:02:02;;;;;;;;;;;17.90;29.20;;;;;;8366301;28;19931;-44
2023/03/02 03:06:07;;;;;;;;;;;17.90;29.20;;;;;;8366613;28;19913;-45
2023/03/02 03:10:20;;;;;;;;;;;17.90;29.20;;;;;;8365939;28;19924;-44
2023/03/02 03:14:25;;;;;;;;;;;17.90;29.30;;;;;;8365992;28;20015;-45
2023/03/02 03:18:25;;;;;;;;;;;17.80;29.20;;;;;;8366007;28;19962;-44
2023/03/02 03:22:26;;;;;;;;;;;17.80;29.30;;;;;;8365235;28;20381;-44
2023/03/02 03:26:26;;;;;;;;;;;17.80;29.30;;;;;;8365616;28;19924;-44
2023/03/02 03:30:27;;;;;;;;;;;17.80;29.30;;;;;;8365655;28;20335;-44
2023/03/02 03:34:28;;;;;;;;;;;17.80;29.30;;;;;;8364810;28;19940;-45
2023/03/02 03:38:29;;;;;;;;;;;17.80;29.70;;;;;;8365354;28;20005;-44
2023/03/02 03:42:29;;;;;;;;;;;17.80;29.30;;;;;;8365305;28;19938;-44
2023/03/02 03:46:30;;;;;;;;;;;17.80;29.40;;;;;;8364419;28;19913;-45
2023/03/02 03:50:31;;;;;;;;;;;17.70;29.30;;;;;;8364180;28;19912;-44
2023/03/02 03:54:31;;;;;;;;;;;17.80;29.30;;;;;;8364670;28;20443;-45
2023/03/02 03:58:32;;;;;;;;;;;17.80;29.40;;;;;;8364089;28;19921;-44
2023/03/02 04:02:33;;;;;;;;;;;17.70;29.30;;;;;;8364708;28;19925;-45
2023/03/02 04:06:33;;;;;;;;;;;17.70;29.40;;;;;;8364563;28;20436;-44
2023/03/02 04:10:34;;;;;;;;;;;17.70;29.40;;;;;;8364007;28;19921;-44
2023/03/02 04:14:35;;;;;;;;;;;17.70;29.40;;;;;;8364125;28;19916;-44
2023/03/02 04:18:35;;;;;;;;;;;17.70;29.40;;;;;;8364037;28;19948;-44
2023/03/02 04:22:35;;;;;;;;;;;17.70;29.40;;;;;;8363196;28;19939;-44
2023/03/02 04:26:37;;;;;;;;;;;17.70;29.40;;;;;;8364159;28;19917;-45
2023/03/02 04:30:37;;;;;;;;;;;17.70;29.40;;;;;;8363514;28;19928;-44
2023/03/02 04:34:38;;;;;;;;;;;17.70;29.40;;;;;;8363025;28;19956;-44
2023/03/02 04:38:38;;;;;;;;;;;17.70;29.40;;;;;;8363586;28;19951;-44
2023/03/02 04:42:39;;;;;;;;;;;17.70;29.40;;;;;;8363319;28;20406;-44
2023/03/02 04:46:40;;;;;;;;;;;17.70;29.40;;;;;;8363062;28;19917;-45
2023/03/02 04:50:40;;;;;;;;;;;17.70;29.40;;;;;;8363379;28;20367;-44
2023/03/02 04:54:41;;;;;;;;;;;17.70;29.40;;;;;;8363142;28;19917;-44
2023/03/02 04:58:41;;;;;;;;;;;17.70;29.40;;;;;;8362633;28;20004;-44
2023/03/02 05:02:42;;;;;;;;;;;17.70;29.40;;;;;;8361513;28;19929;-45
2023/03/02 05:06:44;;;;;;;;;;;17.70;29.40;;;;;;8363235;28;19913;-44
2023/03/02 05:10:44;;;;;;;;;;;17.70;29.50;;;;;;8344746;28;19917;-44
2023/03/02 05:14:45;;;;;;;;;;;17.80;29.50;;;;;;8362993;28;19917;-43
2023/03/02 05:18:46;;;;;;;;;;;17.90;29.40;;;;;;8362457;28;20362;-43
2023/03/02 05:22:46;;;;;;;;;;;18.00;29.40;;;;;;8362918;28;19925;-43
2023/03/02 05:26:47;;;;;;;;;;;18.10;29.30;;;;;;8363060;28;20392;-43
2023/03/02 05:30:48;;;;;;;;;;;18.20;29.30;;;;;;8362300;28;19923;-45
2023/03/02 05:34:48;;;;;;;;;;;18.30;29.20;;;;;;8362542;28;19917;-44
2023/03/02 05:38:49;;;;;;;;;;;18.50;29.20;;;;;;8344641;28;20414;-45
2023/03/02 05:42:49;;;;;;;;;;;18.50;29.20;;;;;;8362007;28;20413;-44
2023/03/02 05:46:50;;;;;;;;;;;18.60;29.20;;;;;;8362956;28;19913;-45
2023/03/02 05:50:50;;;;;;;;;;;18.60;29.10;;;;;;8362595;28;19917;-44
2023/03/02 05:54:51;;;;;;;;;;;18.70;29.10;;;;;;8361816;28;19923;-45
2023/03/02 05:58:51;;;;;;;;;;;18.80;29.20;;;;;;8362335;28;19928;-42
2023/03/02 06:02:52;;;;;;;;;;;18.80;29.10;;;;;;8362274;28;19928;-44
2023/03/02 06:06:52;;;;;;;;;;;18.90;29.10;;;;;;8361920;28;19913;-42
2023/03/02 06:10:55;;;;;;;;;;;18.90;29.10;;;;;;8361929;28;19947;-44
2023/03/02 06:14:56;;;;;;;;;;;19.00;29.10;;;;;;8366546;28;19917;-44
2023/03/02 06:18:56;;;;;;;;;;;19.00;29.10;;;;;;8367382;28;19956;-44
2023/03/02 06:22:57;;;;;;;;;;;19.10;29.10;;;;;;8367625;28;19925;-44
2023/03/02 06:26:57;;;;;;;;;;;19.10;29.00;;;;;;8368029;28;19944;-45
2023/03/02 06:30:59;;;;;;;;;;;19.10;29.00;;;;;;8366964;28;20011;-45
2023/03/02 06:35:00;;;;;;;;;;;19.20;29.10;;;;;;8367548;28;19991;-44
2023/03/02 06:39:00;;;;;;;;;;;19.20;29.00;;;;;;8367123;28;19923;-44
2023/03/02 06:43:01;;;;;;;;;;;19.20;29.00;;;;;;8366540;28;20425;-43
2023/03/02 06:47:01;;;;;;;;;;;19.30;29.00;;;;;;8367620;28;19913;-43
2023/03/02 06:51:02;;;;;;;;;;;19.30;29.00;;;;;;8366713;28;19956;-43
2023/03/02 06:55:02;;;;;;;;;;;19.30;29.00;;;;;;8366248;28;19925;-43
2023/03/02 06:59:03;;;;;;;;;;;19.30;29.00;;;;;;8366611;28;19945;-43
2023/03/02 07:03:03;;;;;;;;;;;19.30;29.00;;;;;;8366363;28;19928;-43
2023/03/02 07:07:04;;;;;;;;;;;19.40;29.00;;;;;;8366273;28;19967;-45
2023/03/02 07:11:09;;;;;;;;;;;19.40;29.00;;;;;;8366306;28;19917;-44
2023/03/02 07:15:11;;;;;;;;;;;19.40;29.00;;;;;;8366467;28;19917;-43
2023/03/02 07:19:12;;;;;;;;;;;19.40;29.00;;;;;;8364121;28;20030;-44
2023/03/02 07:23:13;;;;;;;;;;;19.50;29.00;;;;;;8365649;28;20325;-43
2023/03/02 07:27:13;;;;;;;;;;;19.50;29.00;;;;;;8366002;28;20000;-43
2023/03/02 07:31:13;;;;;;;;;;;19.50;29.00;;;;;;8365224;28;20012;-44
2023/03/02 07:35:15;;;;;;;;;;;19.50;29.00;;;;;;8365386;28;19971;-42
2023/03/02 07:39:16;;;;;;;;;;;19.60;29.00;;;;;;8365366;28;19917;-43
2023/03/02 07:43:16;;;;;;;;;;;19.60;29.00;;;;;;8364880;28;19940;-43
2023/03/02 07:47:17;;;;;;;;;;;19.60;29.00;;;;;;8365811;28;19972;-44
2023/03/02 07:51:17;;;;;;;;;;;19.60;28.90;;;;;;8364888;28;19917;-43
2023/03/02 07:55:18;;;;;;;;;;;19.60;28.90;;;;;;8364074;28;19917;-43
2023/03/02 07:59:18;;;;;;;;;;;19.70;29.00;;;;;;8364916;28;20015;-44
2023/03/02 08:03:18;;;;;;;;;;;19.70;28.90;;;;;;8363962;28;19920;-45
2023/03/02 08:07:19;;;;;;;;;;;19.70;28.90;;;;;;8364297;28;20088;-43
2023/03/02 08:11:19;;;;;;;;;;;19.70;28.90;;;;;;8364403;28;20258;-44
2023/03/02 08:15:20;;;;;;;;;;;19.70;28.90;;;;;;8364398;28;19924;-44
2023/03/02 08:19:20;;;;;;;;;;;19.60;28.90;;;;;;8363719;28;19921;-44
2023/03/02 08:23:21;;;;;;;;;;;19.60;28.90;;;;;;8364217;28;20047;-45
2023/03/02 08:27:22;;;;;;;;;;;19.60;28.90;;;;;;8364066;28;19999;-45
2023/03/02 08:31:22;;;;;;;;;;;19.60;28.90;;;;;;8363152;28;19917;-45
2023/03/02 08:35:22;;;;;;;;;;;19.60;28.90;;;;;;8363057;28;19960;-44
2023/03/02 08:39:23;;;;;;;;;;;19.50;28.90;;;;;;8363370;28;19970;-44
2023/03/02 08:43:24;;;;;;;;;;;19.50;29.00;;;;;;8362814;28;20339;-45
2023/03/02 08:47:25;;;;;;;;;;;19.40;29.00;;;;;;8363996;28;20294;-44
2023/03/02 08:51:26;;;;;;;;;;;19.40;29.00;;;;;;8363117;28;19971;-44
2023/03/02 08:55:26;;;;;;;;;;;19.40;29.00;;;;;;8362879;28;19916;-44
2023/03/02 08:59:26;;;;;;;;;;;19.40;29.00;;;;;;8363079;28;19929;-44
2023/03/02 09:03:27;;;;;;;;;;;19.30;29.00;;;;;;8363185;28;19917;-45
2023/03/02 09:07:29;;;;;;;;;;;19.30;29.00;;;;;;8362381;28;20346;-44
2023/03/02 09:11:29;;;;;;;;;;;19.30;29.00;;;;;;8362883;28;19917;-44
2023/03/02 09:15:30;;;;;;;;;;;19.30;29.00;;;;;;8362729;28;19917;-43
2023/03/02 09:19:30;;;;;;;;;;;19.30;29.10;;;;;;8362007;28;19979;-43
2023/03/02 09:23:31;;;;;;;;;;;19.20;29.00;;;;;;8362791;28;19920;-45
2023/03/02 09:27:32;;;;;;;;;;;19.20;29.50;;;;;;8362753;28;19948;-43
2023/03/02 09:31:33;;;;;;;;;;;19.10;29.00;;;;;;8362007;28;19917;-44
2023/03/02 09:35:33;;;;;;;;;;;19.10;29.00;;;;;;8362632;28;19962;-44
2023/03/02 09:39:33;;;;;;;;;;;19.10;29.10;;;;;;8362321;28;19925;-47
2023/03/02 09:43:43;;;;;;;;;;;19.10;29.10;;;;;;8361993;28;19912;-44
2023/03/02 09:48:08;;;;;;;;;;;19.10;29.20;;;;;;8363636;28;19917;-47
2023/03/02 09:52:14;;;;;;;;;;;19.00;29.10;;;;;;8368122;28;19925;-45
2023/03/02 09:56:16;;;;;;;;;;;19.00;29.10;;;;;;8368148;28;19920;-45
2023/03/02 10:00:37;;;;;;;;;;;19.00;29.10;;;;;;8368375;28;19971;-45
2023/03/02 10:04:41;;;;;;;;;;;18.90;29.10;;;;;;8366706;28;20036;-45
2023/03/02 10:08:42;;;;;;;;;;;18.90;29.20;;;;;;8368071;28;19913;-44
2023/03/02 10:13:01;;;;;;;;;;;18.90;29.20;;;;;;8367919;28;20394;-44
2023/03/02 10:17:15;;;;;;;;;;;18.90;29.20;;;;;;8367906;28;19920;-43
2023/03/02 10:21:23;;;;;;;;;;;18.90;29.20;;;;;;8367593;28;19948;-45
2023/03/02 10:25:30;;;;;;;;;;;18.80;29.20;;;;;;8366961;28;19924;-44
2023/03/02 10:29:39;;;;;;;;;;;18.80;29.20;;;;;;8367406;28;20465;-44
2023/03/02 10:33:40;;;;;;;;;;;18.80;29.20;;;;;;8367415;28;20003;-46
2023/03/02 10:37:41;;;;;;;;;;;18.80;29.20;;;;;;8366664;28;19921;-46
2023/03/02 10:42:05;;;;;;;;;;;18.80;29.20;;;;;;8367298;28;20006;-44
2023/03/02 10:46:07;;;;;;;;;;;18.80;29.30;;;;;;8355572;28;20393;-44
2023/03/02 10:50:20;;;;;;;;;;;18.70;29.30;;;;;;8366847;28;19921;-47
2023/03/02 10:54:20;;;;;;;;;;;18.70;29.30;;;;;;8366582;28;19913;-45
2023/03/02 10:58:28;;;;;;;;;;;18.70;29.20;;;;;;8365921;28;19958;-43
2023/03/02 11:02:36;;;;;;;;;;;18.70;29.20;;;;;;8366381;28;19950;-44
2023/03/02 11:06:36;;;;;;;;;;;18.70;29.30;;;;;;8365682;28;19952;-45
2023/03/02 11:10:49;;;;;;;;;;;18.70;29.20;;;;;;8365628;28;19928;-45
2023/03/02 11:14:59;;;;;;;;;;;18.70;29.30;;;;;;8366187;28;20300;-44
2023/03/02 11:19:05;;;;;;;;;;;18.70;29.30;;;;;;8365719;28;19913;-44
2023/03/02 11:23:26;;;;;;;;;;;18.60;29.30;;;;;;8365942;28;19925;-45
2023/03/02 11:27:27;;;;;;;;;;;18.60;29.30;;;;;;8365797;28;19916;-45
2023/03/02 11:31:41;;;;;;;;;;;18.60;29.30;;;;;;8365108;28;19921;-44
2023/03/02 11:35:42;;;;;;;;;;;18.60;29.30;;;;;;8365825;28;19955;-44
2023/03/02 11:39:48;;;;;;;;;;;18.60;29.30;;;;;;8365160;28;19916;-44
2023/03/02 11:43:51;;;;;;;;;;;18.60;29.40;;;;;;8365163;28;20390;-47
2023/03/02 11:47:58;;;;;;;;;;;18.60;29.30;;;;;;8364954;28;20366;-43
2023/03/02 11:51:59;;;;;;;;;;;18.60;29.30;;;;;;8364527;28;20440;-44
2023/03/02 11:55:59;;;;;;;;;;;18.60;29.30;;;;;;8364912;28;19916;-46
2023/03/02 12:00:00;;;;;;;;;;;18.50;29.30;;;;;;8364769;28;19936;-44
2023/03/02 12:04:09;;;;;;;;;;;18.60;29.40;;;;;;8364110;28;19912;-44
2023/03/02 12:08:18;;;;;;;;;;;18.60;29.40;;;;;;8364327;28;19920;-45
2023/03/02 12:12:25;;;;;;;;;;;18.50;29.30;;;;;;8363496;28;19916;-45
2023/03/02 12:16:41;;;;;;;;;;;18.50;29.40;;;;;;8363331;28;20390;-45
2023/03/02 12:20:42;;;;;;;;;;;18.60;29.40;;;;;;8363649;28;19978;-46
2023/03/02 12:24:43;;;;;;;;;;;18.50;29.30;;;;;;8364387;28;19967;-45
2023/03/02 12:28:59;;;;;;;;;;;18.50;29.30;;;;;;8363292;28;19917;-45
2023/03/02 12:33:15;;;;;;;;;;;18.50;29.40;;;;;;8363933;28;20298;-47
2023/03/02 12:37:35;;;;;;;;;;;18.50;29.40;;;;;;8363112;28;19916;-46
2023/03/02 12:41:41;;;;;;;;;;;18.50;29.30;;;;;;8363937;28;19959;-45
2023/03/02 12:46:01;;;;;;;;;;;18.50;29.30;;;;;;8363511;28;19917;-45
2023/03/02 12:50:04;;;;;;;;;;;18.50;29.30;;;;;;8362983;28;20282;-45
2023/03/02 12:54:05;;;;;;;;;;;18.50;29.30;;;;;;8363334;28;19919;-45
2023/03/02 12:58:14;;;;;;;;;;;18.50;29.40;;;;;;8362583;28;19932;-44
2023/03/02 13:02:18;;;;;;;;;;;18.50;29.30;;;;;;8362813;28;19952;-44
2023/03/02 13:06:19;;;;;;;;;;;18.50;29.40;;;;;;8363009;28;19916;-44
2023/03/02 13:10:37;;;;;;;;;;;18.50;29.40;;;;;;8362300;28;19966;-46
2023/03/02 13:14:39;;;;;;;;;;;18.50;29.40;;;;;;8363122;28;19913;-44
2023/03/02 13:18:39;;;;;;;;;;;18.50;29.40;;;;;;8362871;28;20046;-46
2023/03/02 13:22:40;;;;;;;;;;;18.50;29.40;;;;;;8365209;28;20369;-43
2023/03/02 13:26:40;;;;;;;;;;;18.50;29.30;;;;;;8369641;28;19925;-46
2023/03/02 13:30:46;;;;;;;;;;;18.50;29.30;;;;;;8369335;28;20007;-45
2023/03/02 13:34:48;;;;;;;;;;;18.50;29.40;;;;;;8369569;28;20389;-44
2023/03/02 13:38:53;;;;;;;;;;;18.40;29.30;;;;;;8369233;28;19931;-45
2023/03/02 13:42:54;;;;;;;;;;;18.40;29.30;;;;;;8368479;28;20353;-44
2023/03/02 13:46:55;;;;;;;;;;;18.40;29.30;;;;;;8368758;28;19917;-44
2023/03/02 13:50:57;;;;;;;;;;;18.40;29.40;;;;;;8368772;28;19917;-45
2023/03/02 13:54:58;;;;;;;;;;;18.40;29.40;;;;;;8368254;28;19917;-43
2023/03/02 13:58:58;;;;;;;;;;;18.40;29.40;;;;;;8368652;28;19943;-46
2023/03/02 14:02:59;;;;;;;;;;;18.40;29.40;;;;;;8368320;28;20337;-44
2023/03/02 14:07:00;;;;;;;;;;;18.40;29.40;;;;;;8367685;28;19916;-45
2023/03/02 14:11:01;;;;;;;;;;;18.40;29.40;;;;;;8366832;28;19923;-45
2023/03/02 14:15:02;;;;;;;;;;;18.40;29.40;;;;;;8368239;28;19920;-45
2023/03/02 14:19:03;;;;;;;;;;;18.40;29.40;;;;;;8367269;28;19959;-45
2023/03/02 14:23:04;;;;;;;;;;;18.40;29.40;;;;;;8367448;28;19947;-45
2023/03/02 14:27:04;;;;;;;;;;;18.40;29.40;;;;;;8367587;28;20370;-46
2023/03/02 14:31:05;;;;;;;;;;;18.40;29.40;;;;;;8366653;28;20329;-46
2023/03/02 14:35:10;;;;;;;;;;;18.40;29.50;;;;;;8366472;28;19939;-45
2023/03/02 14:39:29;;;;;;;;;;;18.40;29.50;;;;;;8366887;28;19916;-45
2023/03/02 14:43:29;;;;;;;;;;;18.40;29.40;;;;;;8367211;28;19932;-45
2023/03/02 14:47:30;;;;;;;;;;;18.40;29.50;;;;;;8366975;28;20370;-43
2023/03/02 14:51:33;;;;;;;;;;;18.30;29.40;;;;;;8366768;28;19917;-45
2023/03/02 14:55:35;;;;;;;;;;;18.40;29.50;;;;;;8366222;28;20369;-44
2023/03/02 14:59:35;;;;;;;;;;;18.40;29.40;;;;;;8366344;28;19921;-44
2023/03/02 15:03:35;;;;;;;;;;;18.40;29.50;;;;;;8366375;28;19916;-44
2023/03/02 15:07:37;;;;;;;;;;;18.30;29.40;;;;;;8365366;28;20386;-44
2023/03/02 15:11:38;;;;;;;;;;;18.30;29.40;;;;;;8366247;28;19928;-45
2023/03/02 15:15:39;;;;;;;;;;;18.30;29.40;;;;;;8366001;28;20370;-46
2023/03/02 15:19:40;;;;;;;;;;;18.30;29.40;;;;;;8365151;28;19917;-44
2023/03/02 15:23:40;;;;;;;;;;;18.30;29.40;;;;;;8365734;28;19999;-47
2023/03/02 15:27:41;;;;;;;;;;;18.30;29.40;;;;;;8365718;28;19917;-46
2023/03/02 15:31:41;;;;;;;;;;;18.30;29.40;;;;;;8365121;28;20405;-44
2023/03/02 15:35:43;;;;;;;;;;;18.30;29.40;;;;;;8365794;28;19966;-45
2023/03/02 15:39:43;;;;;;;;;;;18.30;29.50;;;;;;8364989;28;19924;-45
2023/03/02 15:43:48;;;;;;;;;;;18.30;29.40;;;;;;8364415;28;19917;-46
2023/03/02 15:47:48;;;;;;;;;;;18.30;29.50;;;;;;8364824;28;19920;-44
2023/03/02 15:51:51;;;;;;;;;;;18.20;29.40;;;;;;8364556;28;19924;-45
2023/03/02 15:55:52;;;;;;;;;;;18.30;29.50;;;;;;8365159;28;20365;-46
2023/03/02 15:59:52;;;;;;;;;;;18.30;29.50;;;;;;8364567;28;19925;-45
2023/03/02 16:03:53;;;;;;;;;;;18.30;29.50;;;;;;8363889;28;20294;-46
2023/03/02 16:07:53;;;;;;;;;;;18.30;29.50;;;;;;8364263;28;19953;-44
2023/03/02 16:11:54;;;;;;;;;;;18.30;29.50;;;;;;8364610;28;19917;-45
2023/03/02 16:15:55;;;;;;;;;;;18.40;29.50;;;;;;8363991;28;19919;-44
2023/03/02 16:19:56;;;;;;;;;;;18.50;29.50;;;;;;8363844;28;19924;-44
2023/03/02 16:24:02;;;;;;;;;;;18.60;29.90;;;;;;8363776;28;19948;-45
2023/03/02 16:28:03;;;;;;;;;;;18.70;29.40;;;;;;8363203;28;19917;-44
2023/03/02 16:32:05;;;;;;;;;;;18.80;29.30;;;;;;8363959;28;20013;-45
2023/03/02 16:36:06;;;;;;;;;;;18.90;29.40;;;;;;8363821;28;19917;-43
2023/03/02 16:40:07;;;;;;;;;;;18.90;29.30;;;;;;8362784;28;20354;-44
2023/03/02 16:44:08;;;;;;;;;;;19.00;29.30;;;;;;8363576;28;19920;-45
2023/03/02 16:48:08;;;;;;;;;;;19.10;29.30;;;;;;8363496;28;19928;-44
2023/03/02 16:52:08;;;;;;;;;;;19.10;29.20;;;;;;8362780;28;20404;-44
2023/03/02 16:56:09;;;;;;;;;;;19.20;29.30;;;;;;8362928;28;19924;-44
2023/03/02 17:00:12;;;;;;;;;;;19.20;29.20;;;;;;8363580;28;20007;-46
2023/03/02 17:04:12;;;;;;;;;;;19.30;29.20;;;;;;8361277;28;20384;-45
2023/03/02 17:08:14;;;;;;;;;;;19.30;29.60;;;;;;8362985;28;19995;-43
2023/03/02 17:12:14;;;;;;;;;;;19.40;29.20;;;;;;8362752;28;19917;-44
2023/03/02 17:16:15;;;;;;;;;;;19.50;29.20;;;;;;8362645;28;19952;-44
2023/03/02 17:20:16;;;;;;;;;;;19.50;29.20;;;;;;8362688;28;19995;-44
2023/03/02 17:24:17;;;;;;;;;;;19.50;29.20;;;;;;8362583;28;20081;-45
2023/03/02 17:28:17;;;;;;;;;;;19.60;29.20;;;;;;8361588;28;19917;-45
2023/03/02 17:32:18;;;;;;;;;;;19.60;29.20;;;;;;8362459;28;20290;-44
2023/03/02 17:36:18;;;;;;;;;;;19.60;29.20;;;;;;8362412;28;19916;-44
2023/03/02 17:40:19;;;;;;;;;;;19.70;29.20;;;;;;8361758;28;19925;-45
2023/03/02 17:44:19;;;;;;;;;;;19.60;29.20;;;;;;8362366;28;19921;-44
2023/03/02 17:48:20;;;;;;;;;;;19.70;29.20;;;;;;8362480;28;19948;-44
2023/03/02 17:52:20;;;;;;;;;;;19.70;29.20;;;;;;8361969;28;20023;-46
2023/03/02 17:56:23;;;;;;;;;;;19.70;29.20;;;;;;8363064;28;19924;-44
2023/03/02 18:00:23;;;;;;;;;;;19.70;29.20;;;;;;8362564;28;19982;-45
2023/03/02 18:04:24;;;;;;;;;;;19.70;29.20;;;;;;8361737;28;19916;-44
2023/03/02 18:08:24;;;;;;;;;;;19.80;29.20;;;;;;8363191;28;19917;-44
2023/03/02 18:12:25;;;;;;;;;;;19.80;29.20;;;;;;8368189;28;20008;-44
2023/03/02 18:16:26;;;;;;;;;;;19.80;29.10;;;;;;8367784;28;20488;-45
2023/03/02 18:20:27;;;;;;;;;;;19.90;29.20;;;;;;8367665;28;19951;-46
2023/03/02 18:24:27;;;;;;;;;;;19.90;29.20;;;;;;8367825;28;20350;-45
2023/03/02 18:28:28;;;;;;;;;;;19.90;29.20;;;;;;8367117;28;19927;-45
2023/03/02 18:32:28;;;;;;;;;;;19.90;29.20;;;;;;8367596;28;19913;-45
2023/03/02 18:36:29;;;;;;;;;;;19.90;29.20;;;;;;8367672;28;19917;-44
2023/03/02 18:40:29;;;;;;;;;;;19.90;29.10;;;;;;8366396;28;20296;-45
2023/03/02 18:44:30;;;;;;;;;;;19.80;29.10;;;;;;8367462;28;19924;-46
2023/03/02 18:48:31;;;;;;;;;;;19.90;29.10;;;;;;8367156;28;19917;-46
2023/03/02 18:52:31;;;;;;;;;;;19.80;29.10;;;;;;8366543;28;19916;-46
2023/03/02 18:56:32;;;;;;;;;;;19.90;29.20;;;;;;8366838;28;19923;-45
2023/03/02 19:00:33;;;;;;;;;;;19.80;29.20;;;;;;8367067;28;19925;-47
2023/03/02 19:04:34;;;;;;;;;;;19.80;29.20;;;;;;8366028;28;19917;-44
2023/03/02 19:08:35;;;;;;;;;;;19.90;29.30;;;;;;8366475;28;19917;-43
2023/03/02 19:12:35;;;;;;;;;;;19.90;29.20;;;;;;8366254;28;19913;-43
2023/03/02 19:16:36;;;;;;;;;;;19.90;29.20;;;;;;8365979;28;19913;-44
2023/03/02 19:20:36;;;;;;;;;;;19.90;29.20;;;;;;8365468;28;19925;-43
2023/03/02 19:24:37;;;;;;;;;;;19.90;29.20;;;;;;8365924;28;19951;-43
2023/03/02 19:28:38;;;;;;;;;;;20.00;29.20;;;;;;8365376;28;19916;-44
2023/03/02 19:32:39;;;;;;;;;;;20.00;29.20;;;;;;8365940;28;20370;-44
2023/03/02 19:36:39;;;;;;;;;;;20.10;29.10;;;;;;8365687;28;19969;-45
2023/03/02 19:40:40;;;;;;;;;;;20.10;29.10;;;;;;8364626;28;19932;-45
2023/03/02 19:44:40;;;;;;;;;;;20.10;29.10;;;;;;8365240;28;19920;-46
2023/03/02 19:48:41;;;;;;;;;;;20.20;29.10;;;;;;8365084;28;19917;-44
2023/03/02 19:52:41;;;;;;;;;;;20.20;29.10;;;;;;8364590;28;19944;-45
2023/03/02 19:56:42;;;;;;;;;;;20.20;29.10;;;;;;8364856;28;19917;-44
2023/03/02 20:00:43;;;;;;;;;;;20.20;29.10;;;;;;8365319;28;20003;-45
2023/03/02 20:04:45;;;;;;;;;;;20.20;29.10;;;;;;8364033;28;19931;-44
2023/03/02 20:08:46;;;;;;;;;;;20.10;29.10;;;;;;8354205;28;19995;-43
2023/03/02 20:12:47;;;;;;;;;;;20.10;29.10;;;;;;8364208;28;19984;-45
2023/03/02 20:16:47;;;;;;;;;;;20.10;29.00;;;;;;8364379;28;20429;-45
2023/03/02 20:20:48;;;;;;;;;;;20.10;29.10;;;;;;8364293;28;19929;-44
2023/03/02 20:24:48;;;;;;;;;;;20.10;29.10;;;;;;8363760;28;19928;-45
2023/03/02 20:28:50;;;;;;;;;;;20.10;29.20;;;;;;8364081;28;19917;-45
2023/03/02 20:32:50;;;;;;;;;;;20.00;29.10;;;;;;8363507;28;19913;-45
2023/03/02 20:36:51;;;;;;;;;;;20.00;29.20;;;;;;8363523;28;20329;-43
2023/03/02 20:40:51;;;;;;;;;;;20.10;29.20;;;;;;8363679;28;19925;-43
2023/03/02 20:44:52;;;;;;;;;;;20.10;29.20;;;;;;8363867;28;19980;-46
2023/03/02 20:48:52;;;;;;;;;;;20.10;29.20;;;;;;8362895;28;19971;-45
2023/03/02 20:52:53;;;;;;;;;;;20.20;29.20;;;;;;8363835;28;19939;-44
2023/03/02 20:56:54;;;;;;;;;;;20.20;29.10;;;;;;8363728;28;20373;-45
2023/03/02 21:00:55;;;;;;;;;;;20.20;29.10;;;;;;8363420;28;20011;-44
2023/03/02 21:04:57;;;;;;;;;;;20.30;29.10;;;;;;8329035;28;21518;-45
2023/03/02 21:08:58;;;;;;;;;;;20.30;29.10;;;;;;8363297;28;19916;-45
2023/03/02 21:12:59;;;;;;;;;;;20.30;29.10;;;;;;8362978;28;19917;-43
2023/03/02 21:17:00;;;;;;;;;;;20.30;29.10;;;;;;8362987;28;19917;-45
2023/03/02 21:21:01;;;;;;;;;;;20.30;29.10;;;;;;8363155;28;19991;-45
2023/03/02 21:25:02;;;;;;;;;;;20.30;29.00;;;;;;8362589;28;19913;-46
2023/03/02 21:29:04;;;;;;;;;;;20.30;29.00;;;;;;8362804;28;19920;-44
2023/03/02 21:33:04;;;;;;;;;;;20.30;29.00;;;;;;8363318;28;19923;-44
2023/03/02 21:37:04;;;;;;;;;;;20.30;29.00;;;;;;8362375;28;19971;-46
2023/03/02 21:41:05;;;;;;;;;;;20.20;29.00;;;;;;8362661;28;19925;-44
2023/03/02 21:45:07;;;;;;;;;;;20.20;29.00;;;;;;8367965;28;19919;-44
2023/03/02 21:49:08;;;;;;;;;;;20.20;29.00;;;;;;8368711;28;19921;-43
2023/03/02 21:53:08;;;;;;;;;;;20.20;29.00;;;;;;8369152;28;20435;-46
2023/03/02 21:57:11;;;;;;;;;;;20.20;29.10;;;;;;8368974;28;19974;-45
2023/03/02 22:01:12;;;;;;;;;;;20.10;29.10;;;;;;8368490;28;19982;-44
2023/03/02 22:05:12;;;;;;;;;;;20.10;29.00;;;;;;8368845;28;19917;-44
2023/03/02 22:09:13;;;;;;;;;;;20.00;29.00;;;;;;8368516;28;19996;-44
2023/03/02 22:13:16;;;;;;;;;;;20.00;29.10;;;;;;8368069;28;19916;-44
2023/03/02 22:17:19;;;;;;;;;;;20.00;29.10;;;;;;8368497;28;20301;-44
2023/03/02 22:21:36;;;;;;;;;;;19.90;29.10;;;;;;8367993;28;19925;-44
2023/03/02 22:25:36;;;;;;;;;;;19.90;29.20;;;;;;8367491;28;20043;-44
2023/03/02 22:29:41;;;;;;;;;;;19.80;29.10;;;;;;8367928;28;19913;-43
2023/03/02 22:33:41;;;;;;;;;;;19.90;29.20;;;;;;8367953;28;19916;-45
2023/03/02 22:37:41;;;;;;;;;;;19.80;29.10;;;;;;8367139;28;19978;-45
2023/03/02 22:41:42;;;;;;;;;;;19.80;29.20;;;;;;8367680;28;19929;-45
2023/03/02 22:45:43;;;;;;;;;;;19.80;29.20;;;;;;8367242;28;20004;-44
2023/03/02 22:49:44;;;;;;;;;;;19.80;29.20;;;;;;8366709;28;19923;-44
2023/03/02 22:53:55;;;;;;;;;;;19.70;29.20;;;;;;8366899;28;20337;-45
2023/03/02 22:57:55;;;;;;;;;;;19.70;29.20;;;;;;8366485;28;19917;-44
2023/03/02 23:02:00;;;;;;;;;;;19.70;29.30;;;;;;8365674;28;20409;-44
2023/03/02 23:06:00;;;;;;;;;;;19.60;29.30;;;;;;8365688;28;20281;-45
2023/03/02 23:10:00;;;;;;;;;;;19.60;29.40;;;;;;8366059;28;19917;-44
2023/03/02 23:14:05;;;;;;;;;;;19.50;29.40;;;;;;8366518;28;20003;-44
2023/03/02 23:18:26;;;;;;;;;;;19.50;29.40;;;;;;8366351;28;20290;-44
2023/03/02 23:22:28;;;;;;;;;;;19.50;29.40;;;;;;8365661;28;20325;-45
2023/03/02 23:26:29;;;;;;;;;;;19.50;29.40;;;;;;8365984;28;19982;-44